Terminal Aerodrome Forecast
Issued by NWS Grand Rapids, MI

Home | Current Version | Previous Version | Text Only | Print | Product List | Glossary On
Versions: 1 2 3 4 5 6 7 8 9 10 11 12 13 14
000
FTUS43 KGRR 220500
TAFGRR
TAF
KGRR 220540Z 2206/2306 19005KT P6SM SKC
     FM221000 18003KT 4SM HZ SKC
     FM221300 18010KT P6SM SKC
     FM221600 21014G24KT P6SM SCT120
     FM230000 21014G22KT 4SM HZ VCTS OVC050CB
     FM230300 23013KT 4SM BR BKN100=

USA.gov is the U.S. government's official web portal to all federal, state and local government web resources and services.